sensor_id;sensor_type;location;lat;lon;timestamp;P1;durP1;ratioP1;P2;durP2;ratioP2
46863;SDS011;32598;50.204;6.408;2022-10-31T00:02:12;19.52;;;8.73;;
46863;SDS011;32598;50.204;6.408;2022-10-31T00:04:37;14.40;;;7.50;;
46863;SDS011;32598;50.204;6.408;2022-10-31T00:07:03;14.60;;;7.70;;
46863;SDS011;32598;50.204;6.408;2022-10-31T00:09:28;15.87;;;8.30;;
46863;SDS011;32598;50.204;6.408;2022-10-31T00:11:53;16.00;;;8.37;;
46863;SDS011;32598;50.204;6.408;2022-10-31T00:14:18;21.57;;;7.93;;
46863;SDS011;32598;50.204;6.408;2022-10-31T00:16:43;15.00;;;8.10;;
46863;SDS011;32598;50.204;6.408;2022-10-31T00:19:08;18.10;;;8.53;;
46863;SDS011;32598;50.204;6.408;2022-10-31T00:21:34;14.90;;;8.02;;
46863;SDS011;32598;50.204;6.408;2022-10-31T00:23:59;17.52;;;8.00;;
46863;SDS011;32598;50.204;6.408;2022-10-31T00:26:26;14.82;;;7.45;;
46863;SDS011;32598;50.204;6.408;2022-10-31T00:28:51;17.27;;;6.88;;
46863;SDS011;32598;50.204;6.408;2022-10-31T00:31:17;17.07;;;7.43;;
46863;SDS011;32598;50.204;6.408;2022-10-31T00:33:42;16.20;;;6.95;;
46863;SDS011;32598;50.204;6.408;2022-10-31T00:36:09;15.23;;;7.70;;
46863;SDS011;32598;50.204;6.408;2022-10-31T00:38:35;15.80;;;7.07;;
46863;SDS011;32598;50.204;6.408;2022-10-31T00:41:00;18.33;;;7.47;;
46863;SDS011;32598;50.204;6.408;2022-10-31T00:43:25;16.27;;;6.57;;
46863;SDS011;32598;50.204;6.408;2022-10-31T00:45:51;19.97;;;7.13;;
46863;SDS011;32598;50.204;6.408;2022-10-31T00:48:16;12.45;;;6.88;;
46863;SDS011;32598;50.204;6.408;2022-10-31T00:50:41;15.37;;;7.50;;
46863;SDS011;32598;50.204;6.408;2022-10-31T00:53:06;15.95;;;7.30;;
46863;SDS011;32598;50.204;6.408;2022-10-31T00:55:31;15.70;;;8.30;;
46863;SDS011;32598;50.204;6.408;2022-10-31T00:57:56;15.20;;;7.00;;
46863;SDS011;32598;50.204;6.408;2022-10-31T01:00:22;16.43;;;7.83;;
46863;SDS011;32598;50.204;6.408;2022-10-31T01:02:47;14.57;;;7.32;;
46863;SDS011;32598;50.204;6.408;2022-10-31T01:05:12;18.95;;;7.45;;
46863;SDS011;32598;50.204;6.408;2022-10-31T01:07:38;16.42;;;7.53;;
46863;SDS011;32598;50.204;6.408;2022-10-31T01:10:04;15.52;;;7.30;;
46863;SDS011;32598;50.204;6.408;2022-10-31T01:12:29;15.35;;;7.47;;
46863;SDS011;32598;50.204;6.408;2022-10-31T01:14:55;16.02;;;6.80;;
46863;SDS011;32598;50.204;6.408;2022-10-31T01:17:20;18.47;;;7.50;;
46863;SDS011;32598;50.204;6.408;2022-10-31T01:19:45;19.00;;;8.20;;
46863;SDS011;32598;50.204;6.408;2022-10-31T01:22:10;17.52;;;7.30;;
46863;SDS011;32598;50.204;6.408;2022-10-31T01:24:35;14.97;;;8.53;;
46863;SDS011;32598;50.204;6.408;2022-10-31T01:27:01;15.77;;;7.53;;
46863;SDS011;32598;50.204;6.408;2022-10-31T01:29:26;15.55;;;8.25;;
46863;SDS011;32598;50.204;6.408;2022-10-31T01:31:51;14.15;;;7.60;;
46863;SDS011;32598;50.204;6.408;2022-10-31T01:34:17;20.08;;;8.43;;
46863;SDS011;32598;50.204;6.408;2022-10-31T01:36:42;16.55;;;7.70;;
46863;SDS011;32598;50.204;6.408;2022-10-31T01:39:09;16.90;;;8.15;;
46863;SDS011;32598;50.204;6.408;2022-10-31T01:41:36;14.70;;;8.60;;
46863;SDS011;32598;50.204;6.408;2022-10-31T01:46:46;18.15;;;7.97;;
46863;SDS011;32598;50.204;6.408;2022-10-31T01:49:14;17.10;;;8.27;;
46863;SDS011;32598;50.204;6.408;2022-10-31T01:51:43;15.07;;;7.05;;
46863;SDS011;32598;50.204;6.408;2022-10-31T01:54:11;18.17;;;8.25;;
46863;SDS011;32598;50.204;6.408;2022-10-31T01:56:38;19.55;;;9.00;;
46863;SDS011;32598;50.204;6.408;2022-10-31T01:59:04;22.75;;;9.85;;
46863;SDS011;32598;50.204;6.408;2022-10-31T02:01:31;22.80;;;9.48;;
46863;SDS011;32598;50.204;6.408;2022-10-31T02:03:57;18.85;;;8.77;;
46863;SDS011;32598;50.204;6.408;2022-10-31T02:07:08;28.52;;;10.10;;
46863;SDS011;32598;50.204;6.408;2022-10-31T02:09:08;22.90;;;10.10;;
46863;SDS011;32598;50.204;6.408;2022-10-31T02:11:33;24.20;;;10.32;;
46863;SDS011;32598;50.204;6.408;2022-10-31T02:13:59;28.58;;;10.45;;
46863;SDS011;32598;50.204;6.408;2022-10-31T02:16:25;22.27;;;9.57;;
46863;SDS011;32598;50.204;6.408;2022-10-31T02:18:50;21.38;;;9.65;;
46863;SDS011;32598;50.204;6.408;2022-10-31T02:21:21;26.23;;;9.82;;
46863;SDS011;32598;50.204;6.408;2022-10-31T02:26:31;20.90;;;9.10;;
46863;SDS011;32598;50.204;6.408;2022-10-31T02:39:22;18.93;;;8.60;;
46863;SDS011;32598;50.204;6.408;2022-10-31T02:44:20;23.07;;;8.90;;
46863;SDS011;32598;50.204;6.408;2022-10-31T02:49:23;18.85;;;8.38;;
46863;SDS011;32598;50.204;6.408;2022-10-31T02:51:49;18.75;;;8.23;;
46863;SDS011;32598;50.204;6.408;2022-10-31T02:54:19;18.40;;;8.63;;
46863;SDS011;32598;50.204;6.408;2022-10-31T02:56:46;17.83;;;7.60;;
46863;SDS011;32598;50.204;6.408;2022-10-31T02:59:11;17.00;;;8.85;;
46863;SDS011;32598;50.204;6.408;2022-10-31T03:01:53;15.43;;;7.93;;
46863;SDS011;32598;50.204;6.408;2022-10-31T03:09:39;14.73;;;7.80;;
46863;SDS011;32598;50.204;6.408;2022-10-31T03:17:12;19.15;;;7.40;;
46863;SDS011;32598;50.204;6.408;2022-10-31T03:19:41;14.88;;;8.10;;
46863;SDS011;32598;50.204;6.408;2022-10-31T03:24:32;16.48;;;7.22;;
46863;SDS011;32598;50.204;6.408;2022-10-31T03:26:59;18.52;;;8.13;;
46863;SDS011;32598;50.204;6.408;2022-10-31T03:29:26;16.40;;;7.70;;
46863;SDS011;32598;50.204;6.408;2022-10-31T03:31:56;17.83;;;8.13;;
46863;SDS011;32598;50.204;6.408;2022-10-31T03:34:22;19.60;;;8.00;;
46863;SDS011;32598;50.204;6.408;2022-10-31T03:36:52;16.73;;;7.47;;
46863;SDS011;32598;50.204;6.408;2022-10-31T03:39:18;19.58;;;8.55;;
46863;SDS011;32598;50.204;6.408;2022-10-31T03:41:45;16.63;;;7.35;;
46863;SDS011;32598;50.204;6.408;2022-10-31T03:44:13;15.02;;;7.93;;
46863;SDS011;32598;50.204;6.408;2022-10-31T03:46:40;19.52;;;7.68;;
46863;SDS011;32598;50.204;6.408;2022-10-31T03:49:06;15.50;;;8.13;;
46863;SDS011;32598;50.204;6.408;2022-10-31T03:54:41;16.75;;;7.60;;
46863;SDS011;32598;50.204;6.408;2022-10-31T03:57:08;17.45;;;7.45;;
46863;SDS011;32598;50.204;6.408;2022-10-31T03:59:44;17.55;;;7.78;;
46863;SDS011;32598;50.204;6.408;2022-10-31T04:02:13;18.50;;;7.60;;
46863;SDS011;32598;50.204;6.408;2022-10-31T04:04:39;14.85;;;7.85;;
46863;SDS011;32598;50.204;6.408;2022-10-31T04:07:05;14.45;;;7.45;;
46863;SDS011;32598;50.204;6.408;2022-10-31T04:09:32;15.48;;;8.10;;
46863;SDS011;32598;50.204;6.408;2022-10-31T04:11:58;16.48;;;7.60;;
46863;SDS011;32598;50.204;6.408;2022-10-31T04:14:26;14.90;;;7.32;;
46863;SDS011;32598;50.204;6.408;2022-10-31T04:16:52;12.80;;;7.22;;
46863;SDS011;32598;50.204;6.408;2022-10-31T04:19:17;14.35;;;7.22;;
46863;SDS011;32598;50.204;6.408;2022-10-31T04:21:42;13.38;;;7.50;;
46863;SDS011;32598;50.204;6.408;2022-10-31T04:24:10;18.80;;;8.02;;
46863;SDS011;32598;50.204;6.408;2022-10-31T04:26:36;16.20;;;7.63;;
46863;SDS011;32598;50.204;6.408;2022-10-31T04:29:01;14.45;;;7.43;;
46863;SDS011;32598;50.204;6.408;2022-10-31T04:31:27;19.40;;;8.45;;
46863;SDS011;32598;50.204;6.408;2022-10-31T04:33:52;23.17;;;7.50;;
46863;SDS011;32598;50.204;6.408;2022-10-31T04:36:17;17.15;;;7.85;;
46863;SDS011;32598;50.204;6.408;2022-10-31T04:38:42;15.23;;;8.02;;
46863;SDS011;32598;50.204;6.408;2022-10-31T04:41:07;16.15;;;8.27;;
46863;SDS011;32598;50.204;6.408;2022-10-31T04:43:33;15.07;;;7.38;;
46863;SDS011;32598;50.204;6.408;2022-10-31T04:45:58;19.57;;;8.73;;
46863;SDS011;32598;50.204;6.408;2022-10-31T04:48:23;20.67;;;8.75;;
46863;SDS011;32598;50.204;6.408;2022-10-31T04:50:48;19.07;;;8.77;;
46863;SDS011;32598;50.204;6.408;2022-10-31T04:53:13;21.07;;;8.60;;
46863;SDS011;32598;50.204;6.408;2022-10-31T04:55:38;17.23;;;8.03;;
46863;SDS011;32598;50.204;6.408;2022-10-31T04:58:04;16.63;;;7.93;;
46863;SDS011;32598;50.204;6.408;2022-10-31T05:00:29;16.90;;;8.13;;
46863;SDS011;32598;50.204;6.408;2022-10-31T05:02:55;16.67;;;8.63;;
46863;SDS011;32598;50.204;6.408;2022-10-31T05:05:22;15.70;;;8.50;;
46863;SDS011;32598;50.204;6.408;2022-10-31T05:07:47;24.52;;;8.85;;
46863;SDS011;32598;50.204;6.408;2022-10-31T05:10:14;18.00;;;9.10;;
46863;SDS011;32598;50.204;6.408;2022-10-31T05:12:49;23.98;;;9.50;;
46863;SDS011;32598;50.204;6.408;2022-10-31T05:15:15;16.55;;;8.52;;
46863;SDS011;32598;50.204;6.408;2022-10-31T05:17:40;23.08;;;8.40;;
46863;SDS011;32598;50.204;6.408;2022-10-31T05:20:06;24.73;;;8.70;;
46863;SDS011;32598;50.204;6.408;2022-10-31T05:22:31;18.90;;;8.85;;
46863;SDS011;32598;50.204;6.408;2022-10-31T05:24:56;19.53;;;8.10;;
46863;SDS011;32598;50.204;6.408;2022-10-31T05:27:21;17.87;;;8.97;;
46863;SDS011;32598;50.204;6.408;2022-10-31T05:29:47;20.30;;;9.00;;
46863;SDS011;32598;50.204;6.408;2022-10-31T05:32:12;18.07;;;8.43;;
46863;SDS011;32598;50.204;6.408;2022-10-31T05:34:37;18.52;;;8.27;;
46863;SDS011;32598;50.204;6.408;2022-10-31T05:37:02;20.42;;;8.68;;
46863;SDS011;32598;50.204;6.408;2022-10-31T05:39:27;15.70;;;8.13;;
46863;SDS011;32598;50.204;6.408;2022-10-31T05:41:53;16.48;;;8.38;;
46863;SDS011;32598;50.204;6.408;2022-10-31T05:44:18;20.87;;;8.73;;
46863;SDS011;32598;50.204;6.408;2022-10-31T05:46:43;18.20;;;8.00;;
46863;SDS011;32598;50.204;6.408;2022-10-31T05:49:08;19.08;;;9.73;;
46863;SDS011;32598;50.204;6.408;2022-10-31T05:51:33;19.53;;;9.07;;
46863;SDS011;32598;50.204;6.408;2022-10-31T05:53:58;24.40;;;9.77;;
46863;SDS011;32598;50.204;6.408;2022-10-31T05:56:24;23.33;;;10.20;;
46863;SDS011;32598;50.204;6.408;2022-10-31T05:58:49;24.40;;;9.85;;
46863;SDS011;32598;50.204;6.408;2022-10-31T06:01:14;20.57;;;10.30;;
46863;SDS011;32598;50.204;6.408;2022-10-31T06:03:39;18.70;;;9.88;;
46863;SDS011;32598;50.204;6.408;2022-10-31T06:06:04;25.00;;;10.40;;
46863;SDS011;32598;50.204;6.408;2022-10-31T06:08:30;23.92;;;9.43;;
46863;SDS011;32598;50.204;6.408;2022-10-31T06:10:55;22.03;;;10.20;;
46863;SDS011;32598;50.204;6.408;2022-10-31T06:13:20;24.10;;;11.68;;
46863;SDS011;32598;50.204;6.408;2022-10-31T06:15:45;20.98;;;11.20;;
46863;SDS011;32598;50.204;6.408;2022-10-31T06:18:11;29.17;;;10.57;;
46863;SDS011;32598;50.204;6.408;2022-10-31T06:20:36;23.50;;;10.77;;
46863;SDS011;32598;50.204;6.408;2022-10-31T06:23:01;24.33;;;10.70;;
46863;SDS011;32598;50.204;6.408;2022-10-31T06:25:26;24.67;;;10.50;;
46863;SDS011;32598;50.204;6.408;2022-10-31T06:27:52;26.73;;;11.25;;
46863;SDS011;32598;50.204;6.408;2022-10-31T06:30:17;21.27;;;10.90;;
46863;SDS011;32598;50.204;6.408;2022-10-31T06:32:42;21.02;;;10.05;;
46863;SDS011;32598;50.204;6.408;2022-10-31T06:35:07;23.33;;;10.03;;
46863;SDS011;32598;50.204;6.408;2022-10-31T06:37:32;19.60;;;9.65;;
46863;SDS011;32598;50.204;6.408;2022-10-31T06:39:58;22.77;;;10.13;;
46863;SDS011;32598;50.204;6.408;2022-10-31T06:42:23;20.85;;;10.00;;
46863;SDS011;32598;50.204;6.408;2022-10-31T06:44:48;16.77;;;9.00;;
46863;SDS011;32598;50.204;6.408;2022-10-31T06:47:13;18.50;;;8.20;;
46863;SDS011;32598;50.204;6.408;2022-10-31T06:49:38;16.63;;;7.97;;
46863;SDS011;32598;50.204;6.408;2022-10-31T06:52:04;18.70;;;8.25;;
46863;SDS011;32598;50.204;6.408;2022-10-31T06:54:29;13.88;;;7.47;;
46863;SDS011;32598;50.204;6.408;2022-10-31T06:56:54;19.80;;;9.05;;
46863;SDS011;32598;50.204;6.408;2022-10-31T06:59:20;24.30;;;9.68;;
46863;SDS011;32598;50.204;6.408;2022-10-31T07:01:45;20.20;;;8.60;;
46863;SDS011;32598;50.204;6.408;2022-10-31T07:04:10;14.77;;;7.83;;
46863;SDS011;32598;50.204;6.408;2022-10-31T07:06:36;17.52;;;8.07;;
46863;SDS011;32598;50.204;6.408;2022-10-31T07:09:01;16.40;;;8.70;;
46863;SDS011;32598;50.204;6.408;2022-10-31T07:11:26;20.08;;;8.57;;
46863;SDS011;32598;50.204;6.408;2022-10-31T07:13:51;24.00;;;8.90;;
46863;SDS011;32598;50.204;6.408;2022-10-31T07:16:16;26.63;;;9.77;;
46863;SDS011;32598;50.204;6.408;2022-10-31T07:18:41;15.83;;;8.43;;
46863;SDS011;32598;50.204;6.408;2022-10-31T07:21:07;19.70;;;9.50;;
46863;SDS011;32598;50.204;6.408;2022-10-31T07:23:32;17.55;;;9.38;;
46863;SDS011;32598;50.204;6.408;2022-10-31T07:25:57;20.30;;;9.15;;
46863;SDS011;32598;50.204;6.408;2022-10-31T07:28:23;16.98;;;9.10;;
46863;SDS011;32598;50.204;6.408;2022-10-31T07:30:55;17.08;;;8.75;;
46863;SDS011;32598;50.204;6.408;2022-10-31T07:33:21;17.30;;;9.10;;
46863;SDS011;32598;50.204;6.408;2022-10-31T07:35:46;16.85;;;9.38;;
46863;SDS011;32598;50.204;6.408;2022-10-31T07:38:12;22.83;;;12.68;;
46863;SDS011;32598;50.204;6.408;2022-10-31T07:40:38;20.88;;;11.60;;
46863;SDS011;32598;50.204;6.408;2022-10-31T07:43:03;20.90;;;11.90;;
46863;SDS011;32598;50.204;6.408;2022-10-31T07:45:29;19.45;;;9.68;;
46863;SDS011;32598;50.204;6.408;2022-10-31T07:47:54;20.10;;;8.60;;
46863;SDS011;32598;50.204;6.408;2022-10-31T07:50:20;15.52;;;8.82;;
46863;SDS011;32598;50.204;6.408;2022-10-31T07:52:46;16.85;;;8.40;;
46863;SDS011;32598;50.204;6.408;2022-10-31T07:55:12;34.85;;;10.57;;
46863;SDS011;32598;50.204;6.408;2022-10-31T07:57:37;36.33;;;11.35;;
46863;SDS011;32598;50.204;6.408;2022-10-31T08:00:06;24.70;;;8.70;;
46863;SDS011;32598;50.204;6.408;2022-10-31T08:02:31;23.58;;;9.02;;
46863;SDS011;32598;50.204;6.408;2022-10-31T08:04:56;22.02;;;9.15;;
46863;SDS011;32598;50.204;6.408;2022-10-31T08:07:22;19.97;;;8.67;;
46863;SDS011;32598;50.204;6.408;2022-10-31T08:09:47;20.45;;;9.20;;
46863;SDS011;32598;50.204;6.408;2022-10-31T08:12:12;20.77;;;9.37;;
46863;SDS011;32598;50.204;6.408;2022-10-31T08:14:37;20.50;;;9.20;;
46863;SDS011;32598;50.204;6.408;2022-10-31T08:17:02;16.23;;;8.57;;
46863;SDS011;32598;50.204;6.408;2022-10-31T08:19:27;18.87;;;8.33;;
46863;SDS011;32598;50.204;6.408;2022-10-31T08:21:53;16.15;;;8.43;;
46863;SDS011;32598;50.204;6.408;2022-10-31T08:24:20;20.38;;;9.18;;
46863;SDS011;32598;50.204;6.408;2022-10-31T08:26:45;18.95;;;9.55;;
46863;SDS011;32598;50.204;6.408;2022-10-31T08:29:10;19.83;;;9.77;;
46863;SDS011;32598;50.204;6.408;2022-10-31T08:31:35;18.80;;;8.55;;
46863;SDS011;32598;50.204;6.408;2022-10-31T08:34:00;16.27;;;8.70;;
46863;SDS011;32598;50.204;6.408;2022-10-31T08:36:26;15.47;;;8.00;;
46863;SDS011;32598;50.204;6.408;2022-10-31T08:38:52;19.27;;;8.52;;
46863;SDS011;32598;50.204;6.408;2022-10-31T08:41:17;23.70;;;8.70;;
46863;SDS011;32598;50.204;6.408;2022-10-31T08:43:42;15.43;;;7.80;;
46863;SDS011;32598;50.204;6.408;2022-10-31T08:46:07;14.83;;;8.77;;
46863;SDS011;32598;50.204;6.408;2022-10-31T08:48:32;15.77;;;7.97;;
46863;SDS011;32598;50.204;6.408;2022-10-31T08:50:58;20.38;;;8.35;;
46863;SDS011;32598;50.204;6.408;2022-10-31T08:53:24;14.40;;;7.45;;
46863;SDS011;32598;50.204;6.408;2022-10-31T08:55:49;15.65;;;7.40;;
46863;SDS011;32598;50.204;6.408;2022-10-31T08:58:15;19.10;;;8.10;;
46863;SDS011;32598;50.204;6.408;2022-10-31T09:00:41;20.55;;;7.75;;
46863;SDS011;32598;50.204;6.408;2022-10-31T09:03:08;20.50;;;8.18;;
46863;SDS011;32598;50.204;6.408;2022-10-31T09:05:33;19.52;;;7.32;;
46863;SDS011;32598;50.204;6.408;2022-10-31T09:07:59;14.93;;;7.95;;
46863;SDS011;32598;50.204;6.408;2022-10-31T09:10:25;22.02;;;8.98;;
46863;SDS011;32598;50.204;6.408;2022-10-31T09:15:22;18.48;;;8.75;;
46863;SDS011;32598;50.204;6.408;2022-10-31T09:17:48;17.60;;;9.65;;
46863;SDS011;32598;50.204;6.408;2022-10-31T09:20:13;33.13;;;18.70;;
46863;SDS011;32598;50.204;6.408;2022-10-31T09:22:38;23.27;;;13.00;;
46863;SDS011;32598;50.204;6.408;2022-10-31T09:25:03;20.43;;;8.67;;
46863;SDS011;32598;50.204;6.408;2022-10-31T09:27:29;21.55;;;7.68;;
46863;SDS011;32598;50.204;6.408;2022-10-31T09:29:54;23.40;;;7.70;;
46863;SDS011;32598;50.204;6.408;2022-10-31T09:32:19;17.30;;;6.97;;
46863;SDS011;32598;50.204;6.408;2022-10-31T09:34:44;22.73;;;7.53;;
46863;SDS011;32598;50.204;6.408;2022-10-31T09:37:09;16.45;;;7.00;;
46863;SDS011;32598;50.204;6.408;2022-10-31T09:39:35;20.90;;;7.00;;
46863;SDS011;32598;50.204;6.408;2022-10-31T09:42:16;16.40;;;6.93;;
46863;SDS011;32598;50.204;6.408;2022-10-31T09:52:20;22.87;;;7.20;;
46863;SDS011;32598;50.204;6.408;2022-10-31T09:54:52;20.00;;;7.55;;
46863;SDS011;32598;50.204;6.408;2022-10-31T09:57:19;14.27;;;7.15;;
46863;SDS011;32598;50.204;6.408;2022-10-31T09:59:47;14.93;;;7.05;;
46863;SDS011;32598;50.204;6.408;2022-10-31T10:04:54;22.23;;;8.00;;
46863;SDS011;32598;50.204;6.408;2022-10-31T10:09:47;16.10;;;6.65;;
46863;SDS011;32598;50.204;6.408;2022-10-31T10:17:37;22.52;;;7.22;;
46863;SDS011;32598;50.204;6.408;2022-10-31T10:25:23;15.25;;;6.30;;
46863;SDS011;32598;50.204;6.408;2022-10-31T10:30:33;14.23;;;5.90;;
46863;SDS011;32598;50.204;6.408;2022-10-31T10:33:03;16.02;;;6.35;;
46863;SDS011;32598;50.204;6.408;2022-10-31T10:35:33;15.48;;;6.22;;
46863;SDS011;32598;50.204;6.408;2022-10-31T10:38:01;24.75;;;7.03;;
46863;SDS011;32598;50.204;6.408;2022-10-31T10:40:28;18.80;;;6.22;;
46863;SDS011;32598;50.204;6.408;2022-10-31T10:45:45;14.65;;;6.22;;
46863;SDS011;32598;50.204;6.408;2022-10-31T10:48:33;19.95;;;6.47;;
46863;SDS011;32598;50.204;6.408;2022-10-31T10:51:01;17.02;;;6.25;;
46863;SDS011;32598;50.204;6.408;2022-10-31T10:56:07;13.82;;;6.20;;
46863;SDS011;32598;50.204;6.408;2022-10-31T10:58:36;14.75;;;6.07;;
46863;SDS011;32598;50.204;6.408;2022-10-31T11:01:08;14.18;;;5.97;;
46863;SDS011;32598;50.204;6.408;2022-10-31T11:03:35;14.73;;;6.50;;
46863;SDS011;32598;50.204;6.408;2022-10-31T11:06:00;18.30;;;6.55;;
46863;SDS011;32598;50.204;6.408;2022-10-31T11:08:31;17.08;;;6.20;;
46863;SDS011;32598;50.204;6.408;2022-10-31T11:16:10;17.85;;;6.05;;
46863;SDS011;32598;50.204;6.408;2022-10-31T11:18:40;17.00;;;5.80;;
46863;SDS011;32598;50.204;6.408;2022-10-31T11:21:17;20.23;;;5.97;;
46863;SDS011;32598;50.204;6.408;2022-10-31T11:23:44;18.25;;;6.22;;
46863;SDS011;32598;50.204;6.408;2022-10-31T11:26:15;16.43;;;5.20;;
46863;SDS011;32598;50.204;6.408;2022-10-31T11:28:43;19.30;;;5.85;;
46863;SDS011;32598;50.204;6.408;2022-10-31T11:31:11;17.33;;;6.05;;
46863;SDS011;32598;50.204;6.408;2022-10-31T11:33:39;13.85;;;5.50;;
46863;SDS011;32598;50.204;6.408;2022-10-31T11:36:15;18.08;;;5.32;;
46863;SDS011;32598;50.204;6.408;2022-10-31T11:38:41;12.55;;;5.25;;
46863;SDS011;32598;50.204;6.408;2022-10-31T11:41:24;17.63;;;5.25;;
46863;SDS011;32598;50.204;6.408;2022-10-31T11:43:52;14.27;;;5.30;;
46863;SDS011;32598;50.204;6.408;2022-10-31T11:46:19;18.58;;;6.60;;
46863;SDS011;32598;50.204;6.408;2022-10-31T11:48:49;20.38;;;5.90;;
46863;SDS011;32598;50.204;6.408;2022-10-31T11:51:28;15.95;;;4.97;;
46863;SDS011;32598;50.204;6.408;2022-10-31T11:53:55;16.60;;;5.28;;
46863;SDS011;32598;50.204;6.408;2022-10-31T11:56:21;13.60;;;5.70;;
46863;SDS011;32598;50.204;6.408;2022-10-31T11:58:56;12.93;;;5.28;;
46863;SDS011;32598;50.204;6.408;2022-10-31T12:01:27;14.70;;;5.00;;
46863;SDS011;32598;50.204;6.408;2022-10-31T12:04:11;17.92;;;4.78;;
46863;SDS011;32598;50.204;6.408;2022-10-31T12:06:38;17.23;;;4.90;;
46863;SDS011;32598;50.204;6.408;2022-10-31T12:09:18;13.80;;;4.68;;
46863;SDS011;32598;50.204;6.408;2022-10-31T12:16:52;11.30;;;4.38;;
46863;SDS011;32598;50.204;6.408;2022-10-31T12:24:30;16.27;;;4.55;;
46863;SDS011;32598;50.204;6.408;2022-10-31T12:27:03;14.63;;;4.40;;
46863;SDS011;32598;50.204;6.408;2022-10-31T12:36:51;13.73;;;4.15;;
46863;SDS011;32598;50.204;6.408;2022-10-31T12:39:23;15.57;;;4.28;;
46863;SDS011;32598;50.204;6.408;2022-10-31T12:41:56;12.93;;;4.10;;
46863;SDS011;32598;50.204;6.408;2022-10-31T12:46:57;10.85;;;3.70;;
46863;SDS011;32598;50.204;6.408;2022-10-31T18:55:16;14.77;;;5.78;;
46863;SDS011;32598;50.204;6.408;2022-10-31T18:57:42;19.95;;;6.88;;
46863;SDS011;32598;50.204;6.408;2022-10-31T19:00:07;14.93;;;6.55;;
46863;SDS011;32598;50.204;6.408;2022-10-31T19:02:32;16.70;;;6.90;;
46863;SDS011;32598;50.204;6.408;2022-10-31T19:04:57;14.63;;;5.73;;
46863;SDS011;32598;50.204;6.408;2022-10-31T19:07:23;15.70;;;5.87;;
46863;SDS011;32598;50.204;6.408;2022-10-31T19:09:48;11.40;;;5.33;;
46863;SDS011;32598;50.204;6.408;2022-10-31T19:12:13;12.75;;;5.88;;
46863;SDS011;32598;50.204;6.408;2022-10-31T19:14:38;15.68;;;6.10;;
46863;SDS011;32598;50.204;6.408;2022-10-31T19:17:03;21.67;;;6.83;;
46863;SDS011;32598;50.204;6.408;2022-10-31T19:19:29;17.95;;;6.07;;
46863;SDS011;32598;50.204;6.408;2022-10-31T19:21:54;13.77;;;6.25;;
46863;SDS011;32598;50.204;6.408;2022-10-31T19:24:20;19.58;;;6.22;;
46863;SDS011;32598;50.204;6.408;2022-10-31T19:26:45;17.93;;;6.80;;
46863;SDS011;32598;50.204;6.408;2022-10-31T19:29:11;13.00;;;5.60;;
46863;SDS011;32598;50.204;6.408;2022-10-31T19:31:37;15.90;;;6.18;;
46863;SDS011;32598;50.204;6.408;2022-10-31T19:34:02;13.77;;;6.03;;
46863;SDS011;32598;50.204;6.408;2022-10-31T19:36:27;16.27;;;6.03;;
46863;SDS011;32598;50.204;6.408;2022-10-31T19:38:53;20.88;;;6.35;;
46863;SDS011;32598;50.204;6.408;2022-10-31T19:43:44;21.77;;;7.33;;
46863;SDS011;32598;50.204;6.408;2022-10-31T19:46:10;16.57;;;6.37;;
46863;SDS011;32598;50.204;6.408;2022-10-31T19:48:35;20.85;;;6.68;;
46863;SDS011;32598;50.204;6.408;2022-10-31T19:51:05;16.60;;;6.47;;
46863;SDS011;32598;50.204;6.408;2022-10-31T19:53:31;23.35;;;10.65;;
46863;SDS011;32598;50.204;6.408;2022-10-31T19:55:56;31.45;;;15.75;;
46863;SDS011;32598;50.204;6.408;2022-10-31T19:58:22;22.08;;;10.38;;
46863;SDS011;32598;50.204;6.408;2022-10-31T20:00:47;16.63;;;7.13;;
46863;SDS011;32598;50.204;6.408;2022-10-31T20:03:13;16.30;;;6.70;;
46863;SDS011;32598;50.204;6.408;2022-10-31T20:05:38;20.63;;;7.43;;
46863;SDS011;32598;50.204;6.408;2022-10-31T20:08:04;15.70;;;6.93;;
46863;SDS011;32598;50.204;6.408;2022-10-31T20:10:29;17.83;;;7.73;;
46863;SDS011;32598;50.204;6.408;2022-10-31T20:12:54;18.43;;;7.83;;
46863;SDS011;32598;50.204;6.408;2022-10-31T20:15:19;15.97;;;7.17;;
46863;SDS011;32598;50.204;6.408;2022-10-31T20:17:44;15.05;;;7.60;;
46863;SDS011;32598;50.204;6.408;2022-10-31T20:20:10;18.50;;;6.93;;
46863;SDS011;32598;50.204;6.408;2022-10-31T20:22:35;16.55;;;6.80;;
46863;SDS011;32598;50.204;6.408;2022-10-31T20:25:00;20.42;;;7.68;;
46863;SDS011;32598;50.204;6.408;2022-10-31T20:27:26;20.48;;;6.85;;
46863;SDS011;32598;50.204;6.408;2022-10-31T20:29:51;14.00;;;6.60;;
46863;SDS011;32598;50.204;6.408;2022-10-31T20:32:16;24.63;;;7.90;;
46863;SDS011;32598;50.204;6.408;2022-10-31T20:34:41;18.17;;;6.85;;
46863;SDS011;32598;50.204;6.408;2022-10-31T20:37:06;14.67;;;5.73;;
46863;SDS011;32598;50.204;6.408;2022-10-31T20:39:32;21.63;;;8.43;;
46863;SDS011;32598;50.204;6.408;2022-10-31T20:41:59;22.27;;;6.95;;
46863;SDS011;32598;50.204;6.408;2022-10-31T20:44:24;19.42;;;6.47;;
46863;SDS011;32598;50.204;6.408;2022-10-31T20:46:49;16.13;;;6.60;;
46863;SDS011;32598;50.204;6.408;2022-10-31T20:49:15;22.30;;;7.03;;
46863;SDS011;32598;50.204;6.408;2022-10-31T20:51:40;13.50;;;6.40;;
46863;SDS011;32598;50.204;6.408;2022-10-31T20:54:05;14.57;;;6.50;;
46863;SDS011;32598;50.204;6.408;2022-10-31T20:56:30;16.63;;;7.15;;
46863;SDS011;32598;50.204;6.408;2022-10-31T20:58:56;22.73;;;7.03;;
46863;SDS011;32598;50.204;6.408;2022-10-31T21:01:23;15.23;;;6.15;;
46863;SDS011;32598;50.204;6.408;2022-10-31T21:03:48;20.75;;;6.47;;
46863;SDS011;32598;50.204;6.408;2022-10-31T21:06:14;19.00;;;6.32;;
46863;SDS011;32598;50.204;6.408;2022-10-31T21:08:40;19.17;;;6.63;;
46863;SDS011;32598;50.204;6.408;2022-10-31T21:11:15;17.52;;;6.43;;
46863;SDS011;32598;50.204;6.408;2022-10-31T21:13:41;13.23;;;6.07;;
46863;SDS011;32598;50.204;6.408;2022-10-31T21:16:08;18.83;;;6.95;;
46863;SDS011;32598;50.204;6.408;2022-10-31T21:18:34;21.20;;;6.78;;
46863;SDS011;32598;50.204;6.408;2022-10-31T21:20:59;18.27;;;6.55;;
46863;SDS011;32598;50.204;6.408;2022-10-31T21:23:25;13.82;;;6.65;;
46863;SDS011;32598;50.204;6.408;2022-10-31T21:25:50;19.95;;;7.35;;
46863;SDS011;32598;50.204;6.408;2022-10-31T21:28:15;20.40;;;7.25;;
46863;SDS011;32598;50.204;6.408;2022-10-31T21:30:44;17.08;;;6.50;;
46863;SDS011;32598;50.204;6.408;2022-10-31T21:33:10;16.67;;;6.65;;
46863;SDS011;32598;50.204;6.408;2022-10-31T21:35:35;15.63;;;6.65;;
46863;SDS011;32598;50.204;6.408;2022-10-31T21:38:00;19.75;;;7.35;;
46863;SDS011;32598;50.204;6.408;2022-10-31T21:40:26;16.85;;;7.38;;
46863;SDS011;32598;50.204;6.408;2022-10-31T21:42:51;16.20;;;6.45;;
46863;SDS011;32598;50.204;6.408;2022-10-31T21:45:16;16.25;;;7.22;;
46863;SDS011;32598;50.204;6.408;2022-10-31T21:47:41;18.52;;;6.97;;
46863;SDS011;32598;50.204;6.408;2022-10-31T21:50:07;15.60;;;6.90;;
46863;SDS011;32598;50.204;6.408;2022-10-31T21:52:32;15.50;;;7.25;;
46863;SDS011;32598;50.204;6.408;2022-10-31T21:54:57;18.37;;;7.03;;
46863;SDS011;32598;50.204;6.408;2022-10-31T21:57:22;17.77;;;7.77;;
46863;SDS011;32598;50.204;6.408;2022-10-31T21:59:47;18.67;;;6.93;;
46863;SDS011;32598;50.204;6.408;2022-10-31T22:02:13;17.27;;;7.18;;
46863;SDS011;32598;50.204;6.408;2022-10-31T22:04:38;15.65;;;6.32;;
46863;SDS011;32598;50.204;6.408;2022-10-31T22:07:05;17.10;;;6.97;;
46863;SDS011;32598;50.204;6.408;2022-10-31T22:09:30;12.35;;;6.28;;
46863;SDS011;32598;50.204;6.408;2022-10-31T22:11:55;16.42;;;6.35;;
46863;SDS011;32598;50.204;6.408;2022-10-31T22:14:20;14.57;;;5.70;;